Airfield :
LOGIN :

Register | Disclaimer

   EN    FR    IT 

 










Legend :    VFR   Marginal VFR   IFR   Intensive IFR   Very Intensive IFR
Visi :
Ceiling :
>= 8 km
>= 3000ft
5 to 8 km
1000 to 3000 ft
1500m to 5 km
500 to 1000 ft
800 to 1500m
200 to 500 ft
< 800m
< 200 ft
Symbols :   Thunderstorms  Fog  Heavy snow  Heavy precipitations  Wind > 20 kt
SIGMETs :     Misc.  Thunderstorms  Icing  Turbulence  Mountain Waves  Volcanic Ashes







- Airport Elevation : 13 ft
- IATA code : OST


EBOS - Oostend bruges Int.

CURRENT METAR :
  • 212220Z 11002KT 9999 FEW030CB 16/10 Q1012 TEMPO 3000 TSRA

EXPIRED METARs :
  • 212150Z 10005KT 070V130 9999 FEW040TCU 17/10 Q1012 TEMPO 4500 SHRA
  • 212120Z 08007KT 9999 FEW040TCU 17/10 Q1012 TEMPO 4500 SHRA
  • 212050Z 07005KT 9999 FEW040TCU 17/10 Q1012 TEMPO 4500 SHRA
  • 212020Z 03005KT 9999 FEW040TCU 15/11 Q1012 TEMPO 4500 SHRA
  • 211950Z 02007KT 340V050 9999 FEW040TCU 15/11 Q1012 TEMPO 4500 SHRA
  • 211920Z 35005KT 9999 FEW040TCU 15/10 Q1012 NOSIG

TAF TAF EBOS
Valid from the 21 at 18:00 until the 23 at 00:00 UTC


211700Z 2118/2224 02008KT 9999 FEW040TCU
PROB30
TEMPO 2118/2124 VRB15G30KT 3000 SHRA TSRAGS
PROB40
TEMPO 2215/2223 VRB18G30KT 1500 SHRA TSRAGR
No reported NOTAMs for that airfield.



MET'MAP, your aeronautical weather chart ! - Copyright ORBIFLY December 2007 - Disclaimer

ORBIFLY MET'MAP TEAM :

Programming & Development : Alexandra Zaïnal
Concept & Development : Baudouin d'Aumeries
Co-Development & Prog : Marc-Olivier Méhu
Technical & hardware support : Manuel Goepfert

Contact : metmap@orbifly.com




SOURCES & CREDITS :

   NOAA